Historyczne dane pomiarowe

Dodano dane terminowe – wersja testowa.

Dane z okresu 1951-2019

Wersja bazy: 1.34 [2019-03-16, lista zmian], aktualizacja planowana na 2019-04-15

Dane meteo z obszaru Polski uzyskane na podstawie danych udostępnionych przez Instytut Meteorologii i Gospodarki Wodnej – Państwowy Instytut Badawczy.

 

Wybierz Datę:    

       

TemperaturaWilgotnośćWiatrCiśnienieOpadyŚniegCzas trwania zjawisk
 Stacja t tx tn tng RH VA  wxwx mslp ppp RRR   cm mm wxwxwxwxwxwxwx
1977-10-10 12.2 15.7 8.9--- 2.7 3.7---- 0.7------------
1977-10-09 14.5 18.6 11.6--- 0.0 3.7---- 0.0------------
1977-10-08 12.6 17.1 5.4--- 2.7 2.3---- 0.0------------
1977-10-07 11.4 14.4 9.2--- 7.3 3.0---- 0.0------------
1977-10-06 9.1 12.9 5.2--- 6.7 2.3---- 1.1------------
1977-10-05 9.2 11.5 6.8--- 6.7 4.3---- 0.9------------
1977-10-04 6.9 9.7 3.7--- 8.0 3.7---- 4.9------------
1977-10-03 4.6 8.2 3.2--- 5.0 2.3---- 1.7------------
1977-10-02 6.5 9.1 5.2--- 8.0 6.3---- 7.2------------
1977-10-01 9.6 11.7 6.5--- 7.0 7.0---- 0.8------------
1977-09-30 10.3 11.4 8.8--- 8.0 5.0---- 4.4------------
1977-09-29 8.5 13.3 3.8--- 8.0 6.3---- 2.6------------
1977-09-28 5.4 9.4 1.0--- 2.3 4.3---- 0.0------------
1977-09-27 3.9 9.7 -1.5--- 4.3 1.0---- 0.0------------
1977-09-26 4.5 8.7 0.2--- 8.0 1.0---- 0.0------------
1977-09-25 5.2 11.3 -0.5--- 2.3 1.7---- 0.0------------
1977-09-24 5.8 8.8 1.6--- 6.7 1.7---- 0.0------------
1977-09-23 8.5 10.7 6.2--- 3.7 3.0---- 0.0------------
1977-09-22 9.3 11.3 7.8--- 8.0 2.3---- 0.9------------
1977-09-21 8.6 12.5 4.6--- 8.0 1.7---- 1.1------------
1977-09-20 9.0 15.4 5.3--- 4.7 1.0---- 0.0------------
1977-09-19 7.0 12.1 0.0--- 5.3 1.7---- 0.0------------
1977-09-18 4.9 11.1 0.3--- 4.0 1.0---- 0.0------------
1977-09-17 5.8 9.0 3.9--- 3.3 2.3---- 1.0------------
1977-09-16 5.4 8.4 3.4--- 5.7 6.3---- 0.8------------
1977-09-15 8.6 12.3 5.7--- 5.3 7.0---- 13.1------------
1977-09-14 7.7 9.8 3.9--- 6.7 7.3---- 6.8------------
1977-09-13 7.6 13.0 3.3--- 3.0 4.0---- 4.8------------
1977-09-12 12.3 16.8 10.1--- 8.0 11.0---- 3.3------------
1977-09-11 11.2 15.3 6.8--- 7.0 4.3---- 1.1------------
1977-09-10 7.6 10.5 5.7--- 6.0 5.0---- 0.8------------
1977-09-09 9.9 13.6 7.8--- 6.7 3.0---- 1.1------------
1977-09-08 11.5 15.7 8.9--- 6.7 2.3---- 0.9------------
1977-09-07 14.7 16.7 11.5--- 7.3 3.7---- 0.0------------
1977-09-06 16.0 20.3 11.2--- 6.0 3.0---- 0.0------------
1977-09-05 13.4 19.3 5.7--- 2.7 3.0---- 0.0------------
1977-09-04 14.6 17.0 12.4--- 5.3 2.3---- 0.3------------
1977-09-03 17.6 24.0 12.7--- 7.3 1.7---- 21.7------------
1977-09-02 18.8 25.9 11.9--- 5.0 1.0---- 0.0------------
1977-09-01 18.7 24.5 14.2--- 2.7 1.7---- 0.0------------
1977-08-31 18.8 25.7 13.9--- 4.0 3.7---- 0.0------------
1977-08-30 16.0 23.3 7.6--- 0.0 3.0---- 0.0------------
1977-08-29 13.1 18.9 7.8--- 4.3 3.0---- 0.0------------
1977-08-28 14.9 19.5 11.6--- 4.7 1.7---- 0.0------------
1977-08-27 15.2 20.1 11.4--- 8.0 3.7---- 0.0------------
1977-08-26 15.0 20.5 10.4--- 6.7 5.0---- 0.0------------
1977-08-25 13.4 18.9 7.0--- 1.3 2.3---- 0.0------------
1977-08-24 11.5 16.9 5.3--- 4.7 1.7---- 0.0------------
1977-08-23 12.4 16.0 8.4--- 2.3 5.0---- 0.0------------
1977-08-22 13.2 16.5 8.4--- 7.3 6.3---- 0.0------------
1977-08-21 12.0 17.5 6.8--- 3.7 3.0---- 0.0------------
1977-08-20 12.0 16.3 8.2--- 5.7 1.7---- 0.0------------
1977-08-19 14.5 18.3 10.9--- 7.0 6.3---- 0.0------------
1977-08-18 13.4 18.6 7.0--- 5.0 3.7---- 0.0------------
1977-08-17 12.5 18.7 5.4--- 3.0 1.7---- 0.0------------
1977-08-16 12.0 16.2 9.2--- 4.3 1.7---- 0.0------------
1977-08-15 13.3 15.6 11.9--- 5.7 5.0---- 0.1------------
1977-08-14 15.9 16.9 14.6--- 8.0 3.7---- 11.6------------
1977-08-13 16.8 18.9 15.8--- 8.0 1.7---- 0.7------------
1977-08-12 16.8 20.4 14.7--- 8.0 3.0---- 0.0------------
498.2 ms

 

Źródłem pochodzenia danych jest Instytut Meteorologii i Gospodarki Wodnej – Państwowy Instytut Badawczy. Dane Instytutu Meteorologii i Gospodarki Wodnej – Państwowego Instytutu Badawczego zostały przetworzone.

Dane źródłowe można odnaleźć na stronie https://dane.imgw.pl